Time;durP1;ratioP1;P1;durP2;ratioP2;P2;SDS_P1;SDS_P2;PMS_P1;PMS_P2;Temp;Humidity;BMP_temperature;BMP_pressure;BME280_temperature;BME280_humidity;BME280_pressure;Samples;Min_cycle;Max_cycle;Signal;HPM_P1;HPM_P2
2022/05/01 00:02:06;;;;;;;19.48;13.10;;;6.30;99.90;;;;;;5053575;28;20406;-69
2022/05/01 00:04:32;;;;;;;19.48;13.25;;;6.10;99.90;;;;;;5071790;28;20093;-69
2022/05/01 00:06:58;;;;;;;18.30;12.82;;;;;;;;;;5053490;28;20105;-69
2022/05/01 00:09:24;;;;;;;18.38;12.32;;;6.00;99.90;;;;;;5052868;28;20059;-69
2022/05/01 00:11:51;;;;;;;22.23;13.00;;;;;;;;;;5053623;28;20092;-69
2022/05/01 00:14:17;;;;;;;18.15;12.95;;;;;;;;;;5071414;28;20043;-69
2022/05/01 00:16:43;;;;;;;22.08;13.48;;;6.00;99.90;;;;;;5053376;28;20032;-69
2022/05/01 00:19:08;;;;;;;18.63;13.13;;;5.80;99.90;;;;;;5070841;28;20043;-68
2022/05/01 00:21:35;;;;;;;17.58;13.15;;;6.10;99.90;;;;;;5071593;28;20083;-69
2022/05/01 00:24:01;;;;;;;18.95;12.68;;;;;;;;;;5053422;28;20070;-69
2022/05/01 00:26:27;;;;;;;19.58;12.18;;;5.80;99.90;;;;;;5071433;28;20490;-69
2022/05/01 00:28:53;;;;;;;17.58;12.35;;;;;;;;;;5052669;28;20079;-68
2022/05/01 00:31:19;;;;;;;19.08;12.07;;;;;;;;;;5070765;28;20502;-69
2022/05/01 00:36:30;;;;;;;16.40;12.50;;;;;;;;;;5053314;28;20072;-69
2022/05/01 00:39:06;;;;;;;19.33;12.93;;;;;;;;;;5052567;28;20094;-68
2022/05/01 00:41:34;;;;;;;15.43;11.77;;;5.40;99.90;;;;;;5053236;28;20466;-69
2022/05/01 00:44:08;;;;;;;16.50;11.63;;;5.60;99.90;;;;;;5053177;28;20043;-69
2022/05/01 00:46:51;;;;;;;24.73;12.95;;;5.70;99.90;;;;;;5053068;28;20055;-69
2022/05/01 00:49:27;;;;;;;16.95;11.65;;;5.60;99.90;;;;;;5070378;28;20041;-69
2022/05/01 00:52:04;;;;;;;17.83;12.40;;;5.60;99.90;;;;;;5052852;28;20529;-69
2022/05/01 00:54:32;;;;;;;18.67;12.68;;;5.80;99.90;;;;;;5053391;28;20102;-69
2022/05/01 00:57:03;;;;;;;14.95;11.30;;;5.70;99.90;;;;;;5052717;28;20444;-69
2022/05/01 00:59:31;;;;;;;17.52;12.57;;;5.50;99.90;;;;;;5052498;28;20029;-69
2022/05/01 01:01:57;;;;;;;17.90;11.57;;;;;;;;;;5071188;28;20115;-69
2022/05/01 01:04:23;;;;;;;16.50;11.80;;;;;;;;;;5057338;28;20041;-69
2022/05/01 01:06:49;;;;;;;18.40;12.02;;;;;;;;;;5058676;28;20091;-69
2022/05/01 01:09:15;;;;;;;18.38;11.50;;;5.40;99.90;;;;;;5074310;28;20075;-69
2022/05/01 01:11:42;;;;;;;19.35;12.13;;;;;;;;;;5073502;28;20036;-69
2022/05/01 01:14:09;;;;;;;20.20;11.93;;;5.40;99.90;;;;;;5075914;28;20439;-69
2022/05/01 01:16:36;;;;;;;17.20;11.95;;;5.00;99.90;;;;;;5057713;28;20045;-69
2022/05/01 01:19:04;;;;;;;17.63;12.55;;;5.30;99.90;;;;;;5056517;28;20047;-69
2022/05/01 01:21:30;;;;;;;16.48;12.32;;;;;;;;;;5056796;28;20051;-69
2022/05/01 01:23:57;;;;;;;19.17;12.55;;;;;;;;;;5074896;28;20409;-69
2022/05/01 01:26:23;;;;;;;18.95;12.57;;;5.10;99.90;;;;;;5056818;28;20037;-69
2022/05/01 01:28:49;;;;;;;18.23;12.95;;;;;;;;;;5074401;28;20046;-69
2022/05/01 01:34:04;;;;;;;16.55;12.73;;;5.20;99.90;;;;;;5056667;28;20049;-69
2022/05/01 01:36:32;;;;;;;17.88;12.30;;;5.30;99.90;;;;;;5056694;28;20081;-69
2022/05/01 01:38:58;;;;;;;17.60;12.45;;;;;;;;;;5073739;28;20051;-69
2022/05/01 01:41:29;;;;;;;16.42;11.75;;;5.00;99.90;;;;;;5056133;28;20056;-69
2022/05/01 01:43:55;;;;;;;19.15;12.70;;;;;;;;;;5016785;28;20095;-69
2022/05/01 01:46:21;;;;;;;17.23;12.65;;;;;;;;;;5016587;28;20100;-69
2022/05/01 01:48:47;;;;;;;18.60;12.18;;;;;;;;;;5016619;28;20057;-69
2022/05/01 01:51:14;;;;;;;19.65;12.43;;;;;;;;;;5015765;28;20037;-69
2022/05/01 01:53:40;;;;;;;17.75;11.43;;;;;;;;;;5016508;28;20073;-69
2022/05/01 01:56:09;;;;;;;18.95;13.18;;;;;;;;;;5041486;28;20522;-68
2022/05/01 01:58:36;;;;;;;15.95;12.18;;;;;;;;;;5052057;28;20044;-69
2022/05/01 02:01:04;;;;;;;18.92;13.00;;;;;;;;;;5051870;28;20044;-68
2022/05/01 02:03:29;;;;;;;20.33;12.77;;;5.00;99.90;;;;;;5036105;28;20045;-69
2022/05/01 02:05:55;;;;;;;16.42;12.68;;;5.10;99.90;;;;;;5054392;28;20091;-69
2022/05/01 02:08:21;;;;;;;21.85;13.23;;;;;;;;;;5053867;28;20045;-69
2022/05/01 02:10:47;;;;;;;18.73;12.95;;;;;;;;;;5054018;28;20045;-69
2022/05/01 02:13:14;;;;;;;16.98;12.18;;;4.40;99.90;;;;;;5053141;28;20037;-69
2022/05/01 02:15:40;;;;;;;22.48;13.02;;;4.90;99.90;;;;;;5036481;28;20033;-69
2022/05/01 02:18:06;;;;;;;20.55;13.35;;;4.80;99.90;;;;;;5036016;28;20075;-69
2022/05/01 02:21:34;;;;;;;19.20;13.27;;;4.80;99.90;;;;;;5051825;28;20041;-69
2022/05/01 02:23:19;;;;;;;18.00;11.85;;;4.80;99.90;;;;;;5052008;28;20574;-69
2022/05/01 02:25:45;;;;;;;18.92;12.35;;;;;;;;;;5052182;28;20562;-69
2022/05/01 02:28:11;;;;;;;16.63;12.15;;;;;;;;;;5052042;28;20048;-69
2022/05/01 02:30:40;;;;;;;20.45;12.45;;;4.80;99.90;;;;;;5034880;28;20048;-68
2022/05/01 02:33:07;;;;;;;17.13;12.63;;;;;;;;;;5051976;28;20033;-68
2022/05/01 02:35:34;;;;;;;18.45;13.00;;;4.90;99.90;;;;;;5052211;28;20170;-69
2022/05/01 02:38:01;;;;;;;17.08;12.35;;;;;;;;;;5051720;28;20421;-69
2022/05/01 02:40:29;;;;;;;19.35;13.07;;;;;;;;;;5052431;28;20049;-69
2022/05/01 02:42:57;;;;;;;19.10;12.25;;;4.70;99.90;;;;;;5054758;28;20051;-68
2022/05/01 02:45:23;;;;;;;16.58;12.13;;;;;;;;;;5073360;28;20041;-69
2022/05/01 02:47:49;;;;;;;17.20;12.32;;;;;;;;;;5073134;28;20124;-69
2022/05/01 02:50:15;;;;;;;21.25;13.20;;;;;;;;;;5072308;28;20041;-69
2022/05/01 02:52:41;;;;;;;17.08;12.50;;;;;;;;;;5054825;28;20063;-69
2022/05/01 02:55:07;;;;;;;17.10;12.48;;;;;;;;;;5054927;28;20036;-69
2022/05/01 02:57:33;;;;;;;20.48;12.48;;;;;;;;;;5038240;28;20032;-69
2022/05/01 02:59:59;;;;;;;17.83;13.35;;;;;;;;;;5054252;28;20043;-69
2022/05/01 03:02:25;;;;;;;17.90;11.95;;;;;;;;;;5054916;28;20041;-69
2022/05/01 03:04:51;;;;;;;17.30;11.95;;;;;;;;;;5072771;28;20044;-69
2022/05/01 03:07:17;;;;;;;16.15;11.50;;;4.60;99.90;;;;;;5054633;28;20040;-68
2022/05/01 03:09:43;;;;;;;17.00;12.05;;;;;;;;;;5021130;28;20119;-69
2022/05/01 03:12:09;;;;;;;18.83;12.50;;;4.40;99.90;;;;;;5054640;28;20127;-69
2022/05/01 03:14:35;;;;;;;18.65;11.50;;;;;;;;;;5072753;28;20032;-69
2022/05/01 03:17:01;;;;;;;17.52;11.82;;;;;;;;;;5055041;28;20037;-69
2022/05/01 03:22:16;;;;;;;18.23;12.05;;;;;;;;;;5028501;28;20049;-69
2022/05/01 03:24:42;;;;;;;17.10;11.73;;;;;;;;;;5072808;28;20039;-69
2022/05/01 03:27:09;;;;;;;18.08;11.85;;;4.40;99.90;;;;;;5072216;28;20044;-69
2022/05/01 03:29:36;;;;;;;18.27;12.52;;;;;;;;;;5034004;28;20033;-69
2022/05/01 03:32:02;;;;;;;16.30;12.55;;;;;;;;;;5031952;28;20072;-69
2022/05/01 03:34:29;;;;;;;14.85;10.88;;;;;;;;;;5041401;28;20554;-69
2022/05/01 03:36:55;;;;;;;20.95;12.73;;;;;;;;;;5060500;28;20128;-69
2022/05/01 03:39:21;;;;;;;17.83;11.90;;;;;;;;;;5049928;28;20037;-69
2022/05/01 03:41:48;;;;;;;18.85;12.95;;;;;;;;;;5050975;28;20037;-69
2022/05/01 03:44:14;;;;;;;16.08;12.00;;;;;;;;;;5030833;28;20045;-69
2022/05/01 03:46:40;;;;;;;17.95;11.90;;;;;;;;;;5019025;28;20440;-69
2022/05/01 03:49:06;;;;;;;17.42;11.95;;;;;;;;;;5033236;28;20066;-69
2022/05/01 03:51:33;;;;;;;16.92;11.60;;;;;;;;;;5051810;28;20529;-69
2022/05/01 03:54:03;;;;;;;17.05;11.52;;;4.20;99.90;;;;;;5034214;28;20444;-69
2022/05/01 03:56:35;;;;;;;16.80;10.90;;;4.20;99.90;;;;;;5051631;28;20055;-69
2022/05/01 03:59:04;;;;;;;16.67;11.30;;;;;;;;;;5050035;28;20450;-68
2022/05/01 04:01:30;;;;;;;16.10;10.88;;;;;;;;;;5050340;28;20041;-69
2022/05/01 04:03:56;;;;;;;16.08;11.63;;;;;;;;;;5050688;28;20045;-69
2022/05/01 04:06:22;;;;;;;16.67;11.07;;;;;;;;;;5051806;28;20044;-69
2022/05/01 04:08:48;;;;;;;19.27;10.70;;;;;;;;;;5033786;28;20090;-69
2022/05/01 04:11:15;;;;;;;15.88;10.00;;;;;;;;;;5032924;28;20045;-69
2022/05/01 04:13:41;;;;;;;15.50;11.23;;;4.10;99.90;;;;;;5037046;28;20071;-69
2022/05/01 04:16:07;;;;;;;16.67;10.13;;;;;;;;;;5033576;28;20095;-69
2022/05/01 04:18:34;;;;;;;15.73;10.20;;;;;;;;;;5051570;28;20041;-68
2022/05/01 04:21:00;;;;;;;15.32;11.10;;;;;;;;;;5050690;28;20048;-69
2022/05/01 04:23:26;;;;;;;14.07;9.82;;;;;;;;;;5051464;28;20056;-69
2022/05/01 04:25:52;;;;;;;13.27;9.50;;;4.20;99.90;;;;;;5051161;28;20099;-68
2022/05/01 04:28:18;;;;;;;16.48;10.90;;;4.30;99.90;;;;;;5051280;28;20119;-69
2022/05/01 04:30:46;;;;;;;14.82;11.05;;;;;;;;;;5032452;28;20468;-69
2022/05/01 04:33:14;;;;;;;17.50;10.65;;;4.20;99.90;;;;;;5016969;28;20048;-69
2022/05/01 04:35:44;;;;;;;14.45;11.32;;;4.10;99.90;;;;;;5051248;28;20418;-69
2022/05/01 04:38:17;;;;;;;16.83;11.43;;;4.10;99.90;;;;;;5051091;28;20515;-69
2022/05/01 04:40:47;;;;;;;17.30;12.02;;;;;;;;;;5032446;28;20128;-69
2022/05/01 04:43:19;;;;;;;16.38;11.20;;;4.40;99.90;;;;;;5047384;28;20083;-69
2022/05/01 04:45:46;;;;;;;14.55;11.10;;;;;;;;;;5070420;28;20040;-68
2022/05/01 04:48:13;;;;;;;14.98;10.77;;;;;;;;;;5033308;28;20056;-69
2022/05/01 04:50:39;;;;;;;17.15;10.98;;;;;;;;;;5032583;28;20041;-69
2022/05/01 04:53:07;;;;;;;14.93;10.60;;;4.60;99.90;;;;;;5033041;28;20041;-69
2022/05/01 04:55:33;;;;;;;16.65;10.98;;;;;;;;;;5031403;28;20041;-67
2022/05/01 04:57:59;;;;;;;16.67;11.20;;;;;;;;;;5028766;28;20520;-68
2022/05/01 05:00:25;;;;;;;16.80;11.63;;;;;;;;;;5036198;28;20114;-69
2022/05/01 05:02:53;;;;;;;17.88;11.27;;;4.70;99.90;;;;;;5071194;28;20047;-69
2022/05/01 05:05:19;;;;;;;14.95;11.43;;;4.80;99.90;;;;;;5053421;28;20041;-68
2022/05/01 05:07:46;;;;;;;17.10;11.00;;;;;;;;;;5053212;28;20036;-69
2022/05/01 05:10:13;;;;;;;15.60;11.30;;;5.00;99.90;;;;;;5052188;28;20540;-68
2022/05/01 05:12:42;;;;;;;16.92;11.68;;;4.90;99.90;;;;;;5070997;28;20119;-68
2022/05/01 05:15:10;;;;;;;17.92;13.02;;;;;;;;;;5070931;28;20036;-68
2022/05/01 05:17:36;;;;;;;20.10;12.55;;;;;;;;;;5052846;28;20550;-68
2022/05/01 05:20:04;;;;;;;19.95;14.48;;;5.10;99.90;;;;;;5051965;28;20480;-68
2022/05/01 05:22:29;;;;;;;18.85;13.82;;;;;;;;;;5036218;28;20467;-68
2022/05/01 05:24:55;;;;;;;22.92;14.98;;;;;;;;;;5052838;28;20123;-68
2022/05/01 05:27:25;;;;;;;22.58;15.35;;;5.50;99.90;;;;;;5071003;28;20567;-68
2022/05/01 05:29:51;;;;;;;20.23;15.20;;;;;;;;;;5031163;28;20446;-68
2022/05/01 05:32:17;;;;;;;21.45;14.65;;;;;;;;;;5050765;28;20056;-68
2022/05/01 05:34:43;;;;;;;19.80;14.82;;;;;;;;;;5049954;28;20541;-68
2022/05/01 05:39:38;;;;;;;20.98;14.48;;;6.00;99.90;;;;;;5023280;28;20503;-69
2022/05/01 05:42:04;;;;;;;20.55;15.20;;;;;;;;;;5013489;28;20045;-71
2022/05/01 05:44:30;;;;;;;19.77;14.95;;;;;;;;;;5014200;28;20046;-71
2022/05/01 05:46:56;;;;;;;22.15;14.35;;;;;;;;;;5029968;28;20042;-71
2022/05/01 05:49:22;;;;;;;19.90;14.30;;;;;;;;;;5012790;28;20045;-70
2022/05/01 05:51:48;;;;;;;18.58;14.77;;;;;;;;;;5029656;28;20041;-71
2022/05/01 05:54:14;;;;;;;23.20;16.95;;;;;;;;;;5017471;28;20078;-70
2022/05/01 05:56:40;;;;;;;22.67;15.65;;;;;;;;;;5011593;28;20038;-70
2022/05/01 05:59:05;;;;;;;24.42;17.10;;;6.60;99.90;;;;;;4996500;28;20103;-70
2022/05/01 06:01:31;;;;;;;22.75;16.15;;;6.60;99.90;;;;;;4996984;28;20427;-71
2022/05/01 06:03:57;;;;;;;24.80;17.77;;;;;;;;;;5014760;28;20487;-71
2022/05/01 06:06:22;;;;;;;27.20;17.42;;;6.80;99.90;;;;;;4996882;28;20038;-70
2022/05/01 06:08:48;;;;;;;27.30;18.02;;;;;;;;;;5013082;28;20045;-70
2022/05/01 06:11:14;;;;;;;27.85;17.27;;;7.00;99.90;;;;;;5024266;28;20103;-71
2022/05/01 06:13:39;;;;;;;31.02;18.20;;;7.20;99.90;;;;;;5032951;28;20506;-71
2022/05/01 06:16:05;;;;;;;20.98;14.23;;;;;;;;;;5033051;28;20112;-71
2022/05/01 06:18:31;;;;;;;18.85;13.57;;;;;;;;;;5034166;28;20034;-71
2022/05/01 06:20:57;;;;;;;17.92;12.68;;;7.30;99.90;;;;;;5033438;28;20088;-71
2022/05/01 06:23:23;;;;;;;16.42;12.02;;;7.30;99.90;;;;;;5033417;28;20038;-70
2022/05/01 06:25:49;;;;;;;15.32;11.88;;;7.30;99.90;;;;;;5032879;28;20091;-71
2022/05/01 06:28:15;;;;;;;16.85;11.77;;;;;;;;;;5034097;28;20049;-70
2022/05/01 06:30:43;;;;;;;16.48;10.45;;;7.50;99.90;;;;;;5032140;28;20046;-71
2022/05/01 06:33:12;;;;;;;14.48;11.45;;;7.50;99.90;;;;;;5033952;28;20134;-71
2022/05/01 06:35:38;;;;;;;13.18;10.40;;;7.70;99.90;;;;;;5032312;28;20120;-71
2022/05/01 06:38:04;;;;;;;14.32;10.07;;;;;;;;;;5033717;28;20034;-71
2022/05/01 06:40:30;;;;;;;16.73;12.43;;;7.80;99.90;;;;;;5032166;28;20152;-70
2022/05/01 06:42:56;;;;;;;17.73;12.63;;;7.90;99.90;;;;;;5020353;28;20535;-71
2022/05/01 06:45:21;;;;;;;17.27;12.65;;;8.00;99.90;;;;;;5019515;28;20042;-71
2022/05/01 06:47:47;;;;;;;16.70;12.57;;;;;;;;;;5003502;28;20088;-71
2022/05/01 06:50:14;;;;;;;17.38;11.95;;;;;;;;;;5006073;28;20050;-72
2022/05/01 06:52:41;;;;;;;16.67;12.15;;;;;;;;;;5012446;28;20037;-71
2022/05/01 06:55:09;;;;;;;16.63;11.80;;;;;;;;;;5012746;28;20055;-71
2022/05/01 06:57:35;;;;;;;15.07;10.77;;;8.60;99.90;;;;;;5012753;28;20104;-71
2022/05/01 07:00:00;;;;;;;11.65;8.43;;;8.60;99.90;;;;;;5011563;28;20484;-71
2022/05/01 07:02:26;;;;;;;8.13;6.22;;;8.80;99.90;;;;;;5012431;28;20033;-71
2022/05/01 07:04:52;;;;;;;9.13;6.70;;;;;;;;;;5011842;28;20038;-72
2022/05/01 07:07:17;;;;;;;10.95;7.85;;;9.00;99.90;;;;;;5008352;28;20053;-71
2022/05/01 07:09:43;;;;;;;11.07;7.28;;;9.10;99.90;;;;;;5001990;28;20476;-72
2022/05/01 07:12:10;;;;;;;13.63;7.63;;;9.10;99.90;;;;;;5012126;28;20056;-71
2022/05/01 07:14:38;;;;;;;10.20;7.07;;;9.30;99.90;;;;;;5026176;28;20117;-70
2022/05/01 07:17:04;;;;;;;9.20;7.45;;;9.30;99.90;;;;;;5001174;28;20046;-71
2022/05/01 07:19:30;;;;;;;12.88;7.32;;;;;;;;;;5031030;28;20048;-71
2022/05/01 07:21:56;;;;;;;12.00;7.13;;;;;;;;;;5031951;28;20404;-71
2022/05/01 07:24:22;;;;;;;9.93;6.78;;;;;;;;;;5031597;28;20499;-71
2022/05/01 07:26:47;;;;;;;13.73;7.05;;;9.60;99.90;;;;;;5015734;28;20037;-71
2022/05/01 07:29:13;;;;;;;11.35;7.68;;;;;;;;;;5012757;28;20041;-72
2022/05/01 07:31:39;;;;;;;10.60;8.00;;;9.70;99.90;;;;;;5013162;28;20069;-71
2022/05/01 07:34:05;;;;;;;9.80;6.85;;;;;;;;;;5011442;28;20515;-71
2022/05/01 07:36:31;;;;;;;10.68;7.18;;;9.80;99.90;;;;;;5003818;28;20034;-70
2022/05/01 07:38:57;;;;;;;7.90;5.47;;;9.90;99.90;;;;;;4996083;28;20053;-70
2022/05/01 07:41:23;;;;;;;7.88;6.53;;;10.00;99.90;;;;;;4996797;28;20042;-68
2022/05/01 07:43:48;;;;;;;7.57;6.78;;;10.20;99.90;;;;;;5005789;28;20436;-71
2022/05/01 07:46:14;;;;;;;11.43;7.78;;;;;;;;;;5002164;28;20496;-72
2022/05/01 07:48:41;;;;;;;9.65;7.13;;;;;;;;;;5000603;28;20519;-72
2022/05/01 07:51:07;;;;;;;12.35;6.50;;;;;;;;;;5001022;28;20053;-73
2022/05/01 07:53:33;;;;;;;9.32;6.32;;;10.50;99.90;;;;;;4991894;28;20042;-71
2022/05/01 07:55:59;;;;;;;10.35;7.25;;;10.50;99.90;;;;;;5007014;28;20484;-71
2022/05/01 07:58:26;;;;;;;9.63;7.30;;;;;;;;;;5012466;28;20116;-72
2022/05/01 08:00:53;;;;;;;11.55;6.75;;;10.40;99.90;;;;;;5010563;28;20085;-71
2022/05/01 08:06:02;;;;;;;8.00;5.75;;;10.40;99.90;;;;;;5000337;28;20092;-71
2022/05/01 08:08:33;;;;;;;6.90;5.65;;;;;;;;;;4997093;28;20046;-71
2022/05/01 08:11:00;;;;;;;8.50;5.72;;;10.60;99.90;;;;;;4991446;28;20042;-72
2022/05/01 08:13:26;;;;;;;7.18;6.25;;;10.60;99.90;;;;;;4991708;28;20121;-71
2022/05/01 08:15:52;;;;;;;12.82;7.00;;;;;;;;;;4991407;28;20146;-72
2022/05/01 08:21:05;;;;;;;10.77;6.53;;;10.50;99.90;;;;;;4996126;28;20127;-71
2022/05/01 08:23:31;;;;;;;8.00;6.03;;;;;;;;;;4993987;28;20092;-71
2022/05/01 08:26:02;;;;;;;7.85;6.70;;;10.60;99.90;;;;;;4982667;28;20073;-70
2022/05/01 08:28:33;;;;;;;10.10;5.43;;;10.60;99.90;;;;;;5008178;28;20543;-73
2022/05/01 08:31:00;;;;;;;7.72;6.25;;;10.60;99.90;;;;;;5003830;28;20069;-71
2022/05/01 08:33:25;;;;;;;12.60;7.40;;;10.40;99.90;;;;;;4995067;28;20117;-72
2022/05/01 08:35:51;;;;;;;9.27;6.65;;;;;;;;;;4996858;28;20558;-73
2022/05/01 08:38:17;;;;;;;9.35;6.35;;;;;;;;;;4998435;28;20029;-73
2022/05/01 08:40:47;;;;;;;8.73;6.30;;;11.10;99.90;;;;;;4985098;28;20042;-74
2022/05/01 08:43:14;;;;;;;15.05;6.90;;;11.30;99.90;;;;;;4991809;28;20080;-73
2022/05/01 08:46:18;;;;;;;6.65;5.00;;;11.20;99.90;;;;;;4984627;28;20041;-71
2022/05/01 08:49:06;;;;;;;10.45;6.45;;;11.20;99.90;;;;;;5008442;28;20053;-71
2022/05/01 08:51:39;;;;;;;8.13;6.10;;;11.40;99.90;;;;;;5010618;28;20165;-72
2022/05/01 08:54:07;;;;;;;10.45;5.82;;;11.50;99.90;;;;;;5020871;28;20046;-72
2022/05/01 08:56:34;;;;;;;8.82;5.85;;;11.40;99.90;;;;;;5023503;28;20402;-72
2022/05/01 08:59:01;;;;;;;9.10;5.88;;;11.30;99.90;;;;;;4994542;28;20042;-71
2022/05/01 09:01:30;;;;;;;8.88;5.55;;;11.40;99.90;;;;;;5010304;28;20041;-71
2022/05/01 09:03:57;;;;;;;6.78;5.40;;;11.30;99.90;;;;;;5021572;28;20052;-72
2022/05/01 09:06:22;;;;;;;7.50;6.15;;;11.10;99.90;;;;;;5022911;28;20101;-72
2022/05/01 09:08:51;;;;;;;8.00;5.57;;;11.60;99.90;;;;;;5019308;28;20491;-71
2022/05/01 09:14:03;;;;;;;7.28;4.95;;;11.30;99.90;;;;;;5002204;28;20042;-72
2022/05/01 09:16:28;;;;;;;7.18;5.40;;;11.70;99.90;;;;;;5003715;28;20038;-71
2022/05/01 09:18:54;;;;;;;6.93;5.38;;;11.80;99.90;;;;;;4998399;28;20161;-72
2022/05/01 09:21:19;;;;;;;9.48;5.95;;;12.20;99.90;;;;;;4992436;28;20418;-71
2022/05/01 09:23:46;;;;;;;7.95;5.32;;;12.20;99.90;;;;;;4994110;28;20045;-71
2022/05/01 09:26:14;;;;;;;10.57;5.35;;;12.40;99.90;;;;;;5010187;28;20061;-72
2022/05/01 09:28:54;;;;;;;7.35;5.53;;;12.30;99.90;;;;;;5011274;28;20040;-71
2022/05/01 09:31:50;;;;;;;7.60;5.53;;;12.40;99.90;;;;;;5009467;28;20145;-71
2022/05/01 09:34:21;;;;;;;7.55;4.97;;;12.50;99.90;;;;;;5015334;28;20044;-71
2022/05/01 09:36:46;;;;;;;6.32;4.90;;;12.40;99.90;;;;;;5015503;28;20480;-72
2022/05/01 09:39:18;;;;;;;8.43;5.38;;;12.60;99.90;;;;;;5013764;28;20056;-71
2022/05/01 09:41:44;;;;;;;9.18;5.47;;;12.60;99.90;;;;;;5013817;28;20124;-71
2022/05/01 09:44:14;;;;;;;9.57;5.30;;;12.70;99.90;;;;;;5004374;28;20081;-71
2022/05/01 09:46:40;;;;;;;10.65;4.88;;;12.80;99.90;;;;;;5020793;28;20068;-71
2022/05/01 09:49:07;;;;;;;6.22;5.18;;;13.20;99.90;;;;;;5014045;28;20038;-71
2022/05/01 09:51:38;;;;;;;8.00;4.75;;;13.20;99.90;;;;;;5012416;28;20149;-71
2022/05/01 09:54:06;;;;;;;10.82;5.03;;;13.00;99.90;;;;;;5014781;28;20077;-72
2022/05/01 09:56:57;;;;;;;7.47;4.72;;;12.50;99.90;;;;;;4996877;28;20386;-72
2022/05/01 09:59:24;;;;;;;8.60;4.38;;;12.80;99.90;;;;;;5013579;28;20484;-72
2022/05/01 10:01:57;;;;;;;5.53;4.07;;;12.70;99.90;;;;;;5013288;28;20120;-72
2022/05/01 10:04:24;;;;;;;5.65;4.95;;;13.10;99.90;;;;;;5012882;28;20049;-72
2022/05/01 10:06:54;;;;;;;9.13;5.25;;;12.80;99.90;;;;;;5013196;28;20121;-72
2022/05/01 10:09:22;;;;;;;6.28;4.15;;;12.80;99.90;;;;;;5010129;28;20512;-72
2022/05/01 10:11:52;;;;;;;7.32;4.05;;;12.80;99.90;;;;;;5004804;28;20120;-71
2022/05/01 10:14:20;;;;;;;7.07;4.60;;;12.80;99.90;;;;;;5010334;28;20117;-72
2022/05/01 10:16:46;;;;;;;7.38;4.55;;;12.70;99.90;;;;;;5009124;28;20036;-72
2022/05/01 10:19:14;;;;;;;6.28;4.30;;;12.70;99.90;;;;;;5015212;28;20041;-71
2022/05/01 10:21:46;;;;;;;6.47;4.55;;;13.00;99.90;;;;;;5033941;28;20077;-72
2022/05/01 10:24:11;;;;;;;6.53;4.47;;;12.60;99.90;;;;;;5002572;28;20046;-72
2022/05/01 10:26:41;;;;;;;8.07;4.90;;;12.70;99.90;;;;;;5012677;28;20037;-71
2022/05/01 10:29:24;;;;;;;4.82;4.32;;;12.90;99.90;;;;;;5010195;28;20495;-71
2022/05/01 10:32:22;;;;;;;7.63;4.38;;;13.00;99.90;;;;;;5003270;28;20101;-72
2022/05/01 10:35:01;;;;;;;5.45;4.40;;;13.40;99.90;;;;;;4996588;28;20043;-72
2022/05/01 10:37:55;;;;;;;6.85;4.45;;;;;;;;;;4992895;28;20088;-71
2022/05/01 10:40:22;;;;;;;8.20;4.90;;;14.00;99.90;;;;;;4975933;28;20045;-71
2022/05/01 10:42:52;;;;;;;8.43;5.20;;;;;;;;;;4994040;28;20038;-71
2022/05/01 10:45:25;;;;;;;8.10;5.20;;;;;;;;;;5008782;28;20042;-71
2022/05/01 10:47:52;;;;;;;6.47;4.47;;;;;;;;;;4996306;28;20172;-70
2022/05/01 10:50:22;;;;;;;7.70;4.47;;;;;;;;;;4992049;28;20492;-71
2022/05/01 10:53:08;;;;;;;5.57;4.45;;;;;;;;;;4976421;28;20038;-71
2022/05/01 10:55:55;;;;;;;6.40;4.18;;;;;;;;;;4990665;28;20496;-71
2022/05/01 10:58:26;;;;;;;8.82;4.75;;;;;;;;;;5012151;28;20073;-71
2022/05/01 11:00:52;;;;;;;6.07;4.25;;;;;;;;;;5011294;28;20080;-72
2022/05/01 11:03:23;;;;;;;8.25;4.60;;;;;;;;;;4995730;28;20041;-72
2022/05/01 11:05:52;;;;;;;7.43;4.57;;;;;;;;;;5012345;28;20045;-72
2022/05/01 11:08:28;;;;;;;5.22;4.22;;;;;;;;;;4995571;28;20049;-72
2022/05/01 11:10:56;;;;;;;6.35;4.28;;;;;;;;;;5012627;28;20049;-72
2022/05/01 11:13:25;;;;;;;7.05;4.60;;;;;;;;;;5011824;28;20127;-71
2022/05/01 11:15:52;;;;;;;7.63;4.53;;;;;;;;;;5011763;28;20078;-71
2022/05/01 11:18:28;;;;;;;6.47;4.15;;;;;;;;;;5011568;28;20049;-71
2022/05/01 11:20:53;;;;;;;5.88;4.57;;;14.70;99.90;;;;;;5012390;28;20045;-72
2022/05/01 11:23:32;;;;;;;8.77;5.03;;;14.50;99.90;;;;;;5011855;28;20037;-72
2022/05/01 11:26:13;;;;;;;4.85;3.75;;;14.20;98.70;;;;;;5013058;28;20038;-71
2022/05/01 11:28:42;;;;;;;6.93;4.32;;;14.60;99.00;;;;;;4995313;28;20088;-72
2022/05/01 11:31:36;;;;;;;6.93;3.58;;;14.70;99.00;;;;;;5010908;28;20045;-71
2022/05/01 11:34:25;;;;;;;5.05;3.92;;;14.90;99.20;;;;;;4995370;28;20385;-71
2022/05/01 11:36:57;;;;;;;4.18;3.35;;;15.20;99.00;;;;;;5004763;28;20076;-71
2022/05/01 11:39:57;;;;;;;4.13;3.40;;;15.10;98.60;;;;;;5051162;22;20056;-71
2022/05/01 11:42:24;;;;;;;9.32;3.63;;;15.20;98.20;;;;;;5017889;28;20048;-71
2022/05/01 11:44:50;;;;;;;6.03;3.70;;;15.00;98.70;;;;;;5036394;28;20044;-70
2022/05/01 11:47:18;;;;;;;5.90;3.55;;;14.70;98.10;;;;;;5068086;28;20174;-71
2022/05/01 11:49:45;;;;;;;4.93;3.60;;;15.20;98.80;;;;;;5071112;28;20123;-71
2022/05/01 11:52:12;;;;;;;5.75;2.80;;;14.80;98.60;;;;;;5037813;28;20226;-72
2022/05/01 11:54:49;;;;;;;3.80;2.97;;;14.80;98.70;;;;;;5071861;28;20044;-71
2022/05/01 12:03:00;;;;;;;6.45;3.45;;;14.90;98.20;;;;;;5069391;28;20101;-70
2022/05/01 12:05:28;;;;;;;4.38;3.67;;;15.30;97.80;;;;;;5052342;28;20094;-71
2022/05/01 12:07:55;;;;;;;4.13;2.95;;;15.60;98.50;;;;;;5068383;28;20521;-70
2022/05/01 12:10:21;;;;;;;4.35;3.13;;;15.30;98.20;;;;;;5070539;28;20044;-70
2022/05/01 12:12:46;;;;;;;7.30;3.60;;;15.40;97.50;;;;;;5071564;28;20410;-70
2022/05/01 12:15:12;;;;;;;3.10;2.55;;;15.10;97.20;;;;;;5071219;28;20040;-70
2022/05/01 12:17:43;;;;;;;4.32;3.35;;;14.80;98.10;;;;;;5053230;28;20036;-70
2022/05/01 12:20:10;;;;;;;3.58;2.85;;;15.00;97.60;;;;;;5035920;28;20051;-70
2022/05/01 12:22:39;;;;;;;3.92;3.15;;;14.90;96.90;;;;;;5062904;28;20048;-70
2022/05/01 12:25:11;;;;;;;4.25;3.03;;;12.20;96.30;;;;;;5033408;28;20509;-70
2022/05/01 12:27:40;;;;;;;4.22;2.67;;;14.10;96.80;;;;;;5016858;28;20037;-71
2022/05/01 12:30:07;;;;;;;4.72;2.72;;;13.90;97.20;;;;;;5032285;28;20045;-70
2022/05/01 12:32:35;;;;;;;4.78;3.13;;;14.50;97.60;;;;;;5033225;28;20049;-70
2022/05/01 12:35:03;;;;;;;6.07;3.03;;;14.30;97.80;;;;;;5033174;28;20049;-70
2022/05/01 12:37:34;;;;;;;5.95;3.90;;;13.80;97.30;;;;;;5016752;28;20040;-70
2022/05/01 12:39:59;;;;;;;5.53;3.00;;;14.30;97.00;;;;;;5037554;28;20040;-70
2022/05/01 12:45:22;;;;;;;5.10;3.00;;;14.60;97.60;;;;;;5032990;28;20087;-71
2022/05/01 12:47:53;;;;;;;3.83;3.28;;;15.20;98.50;;;;;;5051047;28;20056;-70
2022/05/01 12:50:18;;;;;;;5.13;3.22;;;15.60;97.90;;;;;;5050141;28;20094;-71
2022/05/01 12:52:46;;;;;;;5.45;3.10;;;15.20;97.10;;;;;;5032783;28;20136;-70
2022/05/01 12:55:19;;;;;;;4.38;2.90;;;15.30;98.10;;;;;;5032468;28;20041;-70
2022/05/01 12:57:54;;;;;;;4.55;2.55;;;15.30;98.40;;;;;;5035330;28;20045;-71
2022/05/01 13:00:36;;;;;;;5.10;3.10;;;15.20;98.80;;;;;;5049666;28;20039;-70
2022/05/01 13:03:29;;;;;;;4.65;2.92;;;14.80;98.30;;;;;;5016323;28;20116;-70
2022/05/01 13:05:56;;;;;;;6.07;2.88;;;14.70;98.60;;;;;;5038636;28;20041;-70
2022/05/01 13:08:21;;;;;;;5.53;3.10;;;14.80;98.80;;;;;;5052605;28;20044;-70
2022/05/01 13:11:12;;;;;;;3.72;2.67;;;14.80;99.40;;;;;;5052721;28;20041;-70
2022/05/01 13:13:56;;;;;;;3.58;2.83;;;14.90;98.80;;;;;;5054519;28;20076;-71
2022/05/01 13:16:30;;;;;;;3.63;2.70;;;15.40;98.90;;;;;;5054914;28;20486;-70
2022/05/01 13:19:10;;;;;;;5.45;3.13;;;15.70;99.20;;;;;;5036217;28;20045;-70
2022/05/01 13:21:43;;;;;;;3.63;2.97;;;15.90;98.20;;;;;;5036756;28;20546;-70
2022/05/01 13:24:20;;;;;;;3.80;2.85;;;16.10;98.00;;;;;;5036509;28;20118;-70
2022/05/01 13:26:46;;;;;;;5.43;2.88;;;15.70;96.50;;;;;;5054778;28;20057;-70
2022/05/01 13:29:13;;;;;;;4.07;2.58;;;16.00;97.30;;;;;;5035678;28;20045;-70
2022/05/01 13:31:43;;;;;;;4.35;3.00;;;16.00;97.10;;;;;;5036640;28;20044;-70
2022/05/01 13:34:09;;;;;;;4.20;2.63;;;16.10;97.00;;;;;;5036549;28;20037;-71
2022/05/01 13:36:37;;;;;;;2.50;2.30;;;16.50;96.70;;;;;;5036269;28;20037;-71
2022/05/01 13:39:05;;;;;;;3.95;2.75;;;15.60;95.00;;;;;;5036048;28;20083;-71
2022/05/01 13:44:44;;;;;;;3.65;2.80;;;16.30;95.70;;;;;;5017992;28;20051;-70
2022/05/01 13:47:11;;;;;;;3.83;2.47;;;16.20;94.40;;;;;;5040035;28;20041;-70
2022/05/01 13:49:38;;;;;;;4.10;2.55;;;15.60;94.80;;;;;;5054587;28;20384;-69
2022/05/01 13:52:05;;;;;;;3.30;2.55;;;15.60;95.00;;;;;;5063108;28;20049;-69
2022/05/01 13:54:31;;;;;;;4.28;2.25;;;15.80;95.40;;;;;;5047097;28;20087;-69
2022/05/01 13:56:56;;;;;;;5.10;2.30;;;15.80;95.20;;;;;;5035244;28;20091;-70
2022/05/01 13:59:22;;;;;;;3.53;2.42;;;15.80;95.30;;;;;;5062891;28;20033;-69